sensor_id;sensor_type;location;lat;lon;timestamp;pressure;altitude;pressure_sealevel;temperature;humidity
53262;BME280;39658;51.090;-1.786;2022-09-04T00:00:27;100453.53;;;17.20;88.89
53262;BME280;39658;51.090;-1.786;2022-09-04T00:03:08;100458.53;;;17.23;89.02
53262;BME280;39658;51.090;-1.786;2022-09-04T00:05:43;100455.44;;;17.27;89.32
53262;BME280;39658;51.090;-1.786;2022-09-04T00:08:21;100459.38;;;17.31;88.86
53262;BME280;39658;51.090;-1.786;2022-09-04T00:10:55;100455.66;;;17.32;88.94
53262;BME280;39658;51.090;-1.786;2022-09-04T00:13:24;100459.59;;;17.29;89.26
53262;BME280;39658;51.090;-1.786;2022-09-04T00:15:58;100458.75;;;17.29;89.66
53262;BME280;39658;51.090;-1.786;2022-09-04T00:18:31;100452.13;;;17.31;89.43
53262;BME280;39658;51.090;-1.786;2022-09-04T00:21:03;100450.06;;;17.33;89.40
53262;BME280;39658;51.090;-1.786;2022-09-04T00:23:38;100457.94;;;17.35;89.57
53262;BME280;39658;51.090;-1.786;2022-09-04T00:26:13;100456.50;;;17.32;89.53
53262;BME280;39658;51.090;-1.786;2022-09-04T00:28:46;100465.59;;;17.31;89.47
53262;BME280;39658;51.090;-1.786;2022-09-04T00:31:18;100461.88;;;17.32;89.78
53262;BME280;39658;51.090;-1.786;2022-09-04T00:33:54;100456.06;;;17.29;90.00
53262;BME280;39658;51.090;-1.786;2022-09-04T00:36:26;100456.69;;;17.24;90.35
53262;BME280;39658;51.090;-1.786;2022-09-04T00:38:57;100463.94;;;17.23;90.19
53262;BME280;39658;51.090;-1.786;2022-09-04T00:41:28;100459.97;;;17.19;90.37
53262;BME280;39658;51.090;-1.786;2022-09-04T00:44:10;100467.44;;;17.24;90.28
53262;BME280;39658;51.090;-1.786;2022-09-04T00:46:50;100463.72;;;17.25;90.28
53262;BME280;39658;51.090;-1.786;2022-09-04T00:49:48;100463.09;;;17.23;90.30
53262;BME280;39658;51.090;-1.786;2022-09-04T00:52:28;100474.91;;;17.29;89.96
53262;BME280;39658;51.090;-1.786;2022-09-04T00:55:15;100474.69;;;17.30;89.73
53262;BME280;39658;51.090;-1.786;2022-09-04T00:58:06;100474.28;;;17.27;89.78
53262;BME280;39658;51.090;-1.786;2022-09-04T01:00:37;100474.06;;;17.21;89.90
53262;BME280;39658;51.090;-1.786;2022-09-04T01:03:17;100471.53;;;17.13;90.72
53262;BME280;39658;51.090;-1.786;2022-09-04T01:06:04;100475.25;;;17.12;90.46
53262;BME280;39658;51.090;-1.786;2022-09-04T01:08:42;100474.41;;;17.05;91.28
53262;BME280;39658;51.090;-1.786;2022-09-04T01:11:26;100469.25;;;17.17;90.32
53262;BME280;39658;51.090;-1.786;2022-09-04T01:14:08;100471.13;;;17.10;91.00
53262;BME280;39658;51.090;-1.786;2022-09-04T01:16:43;100473.19;;;17.08;90.63
53262;BME280;39658;51.090;-1.786;2022-09-04T01:19:23;100479.81;;;17.18;90.46
53262;BME280;39658;51.090;-1.786;2022-09-04T01:22:07;100479.81;;;17.12;90.40
53262;BME280;39658;51.090;-1.786;2022-09-04T01:24:57;100491.78;;;17.09;91.14
53262;BME280;39658;51.090;-1.786;2022-09-04T01:27:30;100487.22;;;17.03;91.15
53262;BME280;39658;51.090;-1.786;2022-09-04T01:30:04;100490.53;;;16.99;91.25
53262;BME280;39658;51.090;-1.786;2022-09-04T01:32:34;100490.09;;;16.95;91.47
53262;BME280;39658;51.090;-1.786;2022-09-04T01:35:14;100488.22;;;16.89;91.60
53262;BME280;39658;51.090;-1.786;2022-09-04T01:37:54;100493.81;;;16.87;91.84
53262;BME280;39658;51.090;-1.786;2022-09-04T01:40:31;100491.72;;;16.83;91.95
53262;BME280;39658;51.090;-1.786;2022-09-04T01:43:03;100493.13;;;16.79;91.80
53262;BME280;39658;51.090;-1.786;2022-09-04T01:45:42;100494.22;;;16.84;91.42
53262;BME280;39658;51.090;-1.786;2022-09-04T01:48:15;100496.06;;;16.84;91.40
53262;BME280;39658;51.090;-1.786;2022-09-04T01:50:45;100494.63;;;16.81;91.18
53262;BME280;39658;51.090;-1.786;2022-09-04T01:53:17;100492.94;;;16.80;90.98
53262;BME280;39658;51.090;-1.786;2022-09-04T01:55:55;100494.63;;;16.81;90.26
53262;BME280;39658;51.090;-1.786;2022-09-04T01:58:27;100490.63;;;16.77;90.01
53262;BME280;39658;51.090;-1.786;2022-09-04T02:01:07;100488.56;;;16.73;90.42
53262;BME280;39658;51.090;-1.786;2022-09-04T02:03:44;100490.44;;;16.79;89.62
53262;BME280;39658;51.090;-1.786;2022-09-04T02:06:22;100485.66;;;16.74;89.72
53262;BME280;39658;51.090;-1.786;2022-09-04T02:09:13;100479.66;;;16.72;89.58
53262;BME280;39658;51.090;-1.786;2022-09-04T02:11:47;100480.50;;;16.73;89.26
53262;BME280;39658;51.090;-1.786;2022-09-04T02:14:27;100479.88;;;16.71;88.88
53262;BME280;39658;51.090;-1.786;2022-09-04T02:17:09;100473.88;;;16.69;88.84
53262;BME280;39658;51.090;-1.786;2022-09-04T02:19:55;100471.81;;;16.71;87.88
53262;BME280;39658;51.090;-1.786;2022-09-04T02:22:34;100481.31;;;16.73;87.45
53262;BME280;39658;51.090;-1.786;2022-09-04T02:25:13;100475.72;;;16.68;87.53
53262;BME280;39658;51.090;-1.786;2022-09-04T02:27:49;100467.41;;;16.63;87.18
53262;BME280;39658;51.090;-1.786;2022-09-04T02:30:19;100473.25;;;16.67;86.34
53262;BME280;39658;51.090;-1.786;2022-09-04T02:32:53;100471.59;;;16.66;86.84
53262;BME280;39658;51.090;-1.786;2022-09-04T02:35:28;100472.16;;;16.61;86.91
53262;BME280;39658;51.090;-1.786;2022-09-04T02:38:07;100474.19;;;16.52;86.98
53262;BME280;39658;51.090;-1.786;2022-09-04T02:40:48;100470.03;;;16.50;87.01
53262;BME280;39658;51.090;-1.786;2022-09-04T02:43:25;100473.97;;;16.54;86.55
53262;BME280;39658;51.090;-1.786;2022-09-04T02:46:03;100477.94;;;16.58;86.40
53262;BME280;39658;51.090;-1.786;2022-09-04T02:48:42;100487.44;;;16.60;86.23
53262;BME280;39658;51.090;-1.786;2022-09-04T02:51:25;100477.28;;;16.49;86.33
53262;BME280;39658;51.090;-1.786;2022-09-04T02:54:01;100481.22;;;16.53;86.33
53262;BME280;39658;51.090;-1.786;2022-09-04T02:56:40;100480.63;;;16.58;86.01
53262;BME280;39658;51.090;-1.786;2022-09-04T02:59:40;100486.84;;;16.65;85.54
53262;BME280;39658;51.090;-1.786;2022-09-04T03:02:20;100485.00;;;16.66;85.62
53262;BME280;39658;51.090;-1.786;2022-09-04T03:04:53;100484.41;;;16.70;85.13
53262;BME280;39658;51.090;-1.786;2022-09-04T03:07:26;100486.66;;;16.67;85.60
53262;BME280;39658;51.090;-1.786;2022-09-04T03:10:02;100479.25;;;16.69;85.41
53262;BME280;39658;51.090;-1.786;2022-09-04T03:12:37;100485.00;;;16.66;85.60
53262;BME280;39658;51.090;-1.786;2022-09-04T03:15:14;100479.25;;;16.75;85.21
53262;BME280;39658;51.090;-1.786;2022-09-04T03:17:48;100487.19;;;16.83;84.64
53262;BME280;39658;51.090;-1.786;2022-09-04T03:20:21;100489.06;;;16.96;84.45
53262;BME280;39658;51.090;-1.786;2022-09-04T03:22:54;100488.03;;;16.97;84.27
53262;BME280;39658;51.090;-1.786;2022-09-04T03:28:26;100491.16;;;17.01;84.12
53262;BME280;39658;51.090;-1.786;2022-09-04T03:31:01;100490.75;;;17.10;84.03
53262;BME280;39658;51.090;-1.786;2022-09-04T03:33:37;100488.88;;;17.04;84.33
53262;BME280;39658;51.090;-1.786;2022-09-04T03:36:10;100493.66;;;17.09;84.01
53262;BME280;39658;51.090;-1.786;2022-09-04T03:38:46;100499.44;;;17.06;84.22
53262;BME280;39658;51.090;-1.786;2022-09-04T03:41:31;100495.94;;;17.12;84.01
53262;BME280;39658;51.090;-1.786;2022-09-04T03:44:12;100484.38;;;17.18;83.88
53262;BME280;39658;51.090;-1.786;2022-09-04T03:46:55;100486.19;;;17.04;84.51
53262;BME280;39658;51.090;-1.786;2022-09-04T03:49:37;100488.47;;;17.07;84.69
53262;BME280;39658;51.090;-1.786;2022-09-04T03:52:12;100485.16;;;16.99;84.83
53262;BME280;39658;51.090;-1.786;2022-09-04T03:55:05;100488.69;;;17.06;84.85
53262;BME280;39658;51.090;-1.786;2022-09-04T03:57:51;100493.41;;;16.97;85.48
53262;BME280;39658;51.090;-1.786;2022-09-04T04:00:20;100495.06;;;16.98;85.18
53262;BME280;39658;51.090;-1.786;2022-09-04T04:03:14;100501.25;;;16.92;86.06
53262;BME280;39658;51.090;-1.786;2022-09-04T04:05:52;100496.09;;;16.90;85.71
53262;BME280;39658;51.090;-1.786;2022-09-04T04:08:42;100502.91;;;16.93;86.03
53262;BME280;39658;51.090;-1.786;2022-09-04T04:11:28;100490.94;;;16.96;85.65
53262;BME280;39658;51.090;-1.786;2022-09-04T04:14:16;100486.00;;;17.12;84.97
53262;BME280;39658;51.090;-1.786;2022-09-04T04:16:59;100492.41;;;17.11;84.99
53262;BME280;39658;51.090;-1.786;2022-09-04T04:19:42;100487.66;;;17.07;85.65
53262;BME280;39658;51.090;-1.786;2022-09-04T04:22:29;100482.91;;;17.15;85.06
53262;BME280;39658;51.090;-1.786;2022-09-04T04:25:19;100473.41;;;17.19;84.88
53262;BME280;39658;51.090;-1.786;2022-09-04T04:28:05;100474.47;;;17.25;84.70
53262;BME280;39658;51.090;-1.786;2022-09-04T04:30:47;100470.34;;;17.22;84.83
53262;BME280;39658;51.090;-1.786;2022-09-04T04:33:31;100485.19;;;17.18;84.72
53262;BME280;39658;51.090;-1.786;2022-09-04T04:36:06;100492.22;;;17.13;85.18
53262;BME280;39658;51.090;-1.786;2022-09-04T04:38:54;100481.88;;;17.10;85.20
53262;BME280;39658;51.090;-1.786;2022-09-04T04:41:32;100484.34;;;17.11;85.38
53262;BME280;39658;51.090;-1.786;2022-09-04T04:44:38;100488.91;;;17.11;85.60
53262;BME280;39658;51.090;-1.786;2022-09-04T04:47:46;100493.03;;;17.07;86.09
53262;BME280;39658;51.090;-1.786;2022-09-04T04:50:24;100494.03;;;16.99;85.89
53262;BME280;39658;51.090;-1.786;2022-09-04T04:52:58;100494.66;;;16.95;86.63
53262;BME280;39658;51.090;-1.786;2022-09-04T04:55:38;100498.28;;;16.80;86.94
53262;BME280;39658;51.090;-1.786;2022-09-04T04:58:24;100503.84;;;16.72;87.70
53262;BME280;39658;51.090;-1.786;2022-09-04T05:00:57;100516.75;;;16.83;87.39
53262;BME280;39658;51.090;-1.786;2022-09-04T05:03:35;100510.16;;;16.92;86.84
53262;BME280;39658;51.090;-1.786;2022-09-04T05:06:12;100507.25;;;16.87;86.49
53262;BME280;39658;51.090;-1.786;2022-09-04T05:08:46;100506.41;;;16.87;86.83
53262;BME280;39658;51.090;-1.786;2022-09-04T05:11:22;100512.63;;;16.87;86.94
53262;BME280;39658;51.090;-1.786;2022-09-04T05:14:01;100513.88;;;16.91;87.18
53262;BME280;39658;51.090;-1.786;2022-09-04T05:16:35;100514.53;;;17.00;86.99
53262;BME280;39658;51.090;-1.786;2022-09-04T05:19:11;100514.75;;;17.05;86.60
53262;BME280;39658;51.090;-1.786;2022-09-04T05:21:46;100518.06;;;17.07;86.52
53262;BME280;39658;51.090;-1.786;2022-09-04T05:24:21;100517.91;;;17.22;86.37
53262;BME280;39658;51.090;-1.786;2022-09-04T05:26:53;100515.84;;;17.24;86.45
53262;BME280;39658;51.090;-1.786;2022-09-04T05:29:27;100512.75;;;17.27;86.14
53262;BME280;39658;51.090;-1.786;2022-09-04T05:32:01;100512.56;;;17.35;86.12
53262;BME280;39658;51.090;-1.786;2022-09-04T05:34:34;100498.06;;;17.36;86.30
53262;BME280;39658;51.090;-1.786;2022-09-04T05:37:11;100503.47;;;17.36;86.22
53262;BME280;39658;51.090;-1.786;2022-09-04T05:39:51;100503.25;;;17.38;86.34
53262;BME280;39658;51.090;-1.786;2022-09-04T05:42:45;100504.91;;;17.39;86.33
53262;BME280;39658;51.090;-1.786;2022-09-04T05:45:22;100507.59;;;17.39;86.91
53262;BME280;39658;51.090;-1.786;2022-09-04T05:47:59;100512.97;;;17.39;86.69
53262;BME280;39658;51.090;-1.786;2022-09-04T05:50:40;100520.44;;;17.43;86.86
53262;BME280;39658;51.090;-1.786;2022-09-04T05:56:33;100532.84;;;17.51;87.11
53262;BME280;39658;51.090;-1.786;2022-09-04T05:59:20;100535.56;;;17.58;86.42
53262;BME280;39658;51.090;-1.786;2022-09-04T06:02:11;100544.44;;;17.51;86.91
53262;BME280;39658;51.090;-1.786;2022-09-04T06:05:07;100528.31;;;17.58;87.22
53262;BME280;39658;51.090;-1.786;2022-09-04T06:07:38;100543.47;;;17.66;86.83
53262;BME280;39658;51.090;-1.786;2022-09-04T06:10:13;100553.59;;;17.64;86.74
53262;BME280;39658;51.090;-1.786;2022-09-04T06:13:06;100548.84;;;17.66;86.99
53262;BME280;39658;51.090;-1.786;2022-09-04T06:15:49;100553.22;;;17.67;86.92
53262;BME280;39658;51.090;-1.786;2022-09-04T06:18:34;100568.97;;;17.76;86.73
53262;BME280;39658;51.090;-1.786;2022-09-04T06:21:34;100565.84;;;17.79;86.30
53262;BME280;39658;51.090;-1.786;2022-09-04T06:24:19;100564.63;;;17.82;86.17
53262;BME280;39658;51.090;-1.786;2022-09-04T06:27:04;100569.38;;;17.87;86.04
53262;BME280;39658;51.090;-1.786;2022-09-04T06:33:09;100576.44;;;18.01;85.11
53262;BME280;39658;51.090;-1.786;2022-09-04T06:35:59;100572.94;;;18.07;85.16
53262;BME280;39658;51.090;-1.786;2022-09-04T06:38:39;100571.06;;;18.14;84.60
53262;BME280;39658;51.090;-1.786;2022-09-04T06:41:29;100561.31;;;18.13;84.58
53262;BME280;39658;51.090;-1.786;2022-09-04T06:44:05;100557.38;;;18.15;84.25
53262;BME280;39658;51.090;-1.786;2022-09-04T06:46:39;100566.72;;;18.20;83.53
53262;BME280;39658;51.090;-1.786;2022-09-04T06:49:12;100562.34;;;18.25;83.53
53262;BME280;39658;51.090;-1.786;2022-09-04T06:52:01;100555.72;;;18.28;84.01
53262;BME280;39658;51.090;-1.786;2022-09-04T06:54:43;100579.34;;;18.26;83.36
53262;BME280;39658;51.090;-1.786;2022-09-04T06:57:31;100567.72;;;18.32;83.18
53262;BME280;39658;51.090;-1.786;2022-09-04T07:00:06;100577.06;;;18.29;83.25
53262;BME280;39658;51.090;-1.786;2022-09-04T07:02:57;100582.63;;;18.34;83.00
53262;BME280;39658;51.090;-1.786;2022-09-04T07:05:30;100578.91;;;18.35;83.06
53262;BME280;39658;51.090;-1.786;2022-09-04T07:08:08;100582.84;;;18.33;83.08
53262;BME280;39658;51.090;-1.786;2022-09-04T07:10:44;100588.03;;;18.28;83.30
53262;BME280;39658;51.090;-1.786;2022-09-04T07:13:23;100595.50;;;18.32;83.10
53262;BME280;39658;51.090;-1.786;2022-09-04T07:19:13;100598.41;;;18.24;82.98
53262;BME280;39658;51.090;-1.786;2022-09-04T07:21:47;100606.69;;;18.23;83.44
53262;BME280;39658;51.090;-1.786;2022-09-04T07:24:38;100606.50;;;18.17;83.49
53262;BME280;39658;51.090;-1.786;2022-09-04T07:27:13;100611.47;;;18.21;83.14
53262;BME280;39658;51.090;-1.786;2022-09-04T07:29:47;100611.66;;;18.19;83.85
53262;BME280;39658;51.090;-1.786;2022-09-04T07:32:19;100620.16;;;18.16;83.97
53262;BME280;39658;51.090;-1.786;2022-09-04T07:34:52;100628.03;;;18.17;83.88
53262;BME280;39658;51.090;-1.786;2022-09-04T07:37:28;100634.88;;;18.13;83.92
53262;BME280;39658;51.090;-1.786;2022-09-04T07:40:04;100645.66;;;18.13;84.65
53262;BME280;39658;51.090;-1.786;2022-09-04T07:42:38;100644.81;;;18.13;84.46
53262;BME280;39658;51.090;-1.786;2022-09-04T07:45:13;100647.50;;;18.13;85.09
53262;BME280;39658;51.090;-1.786;2022-09-04T07:47:52;100661.75;;;18.00;86.57
53262;BME280;39658;51.090;-1.786;2022-09-04T07:50:25;100658.84;;;17.89;87.26
53262;BME280;39658;51.090;-1.786;2022-09-04T07:53:01;100657.59;;;17.78;88.35
53262;BME280;39658;51.090;-1.786;2022-09-04T07:55:36;100663.16;;;17.76;88.02
53262;BME280;39658;51.090;-1.786;2022-09-04T08:01:20;100668.34;;;17.71;88.88
53262;BME280;39658;51.090;-1.786;2022-09-04T08:04:07;100659.63;;;17.69;88.85
53262;BME280;39658;51.090;-1.786;2022-09-04T08:06:44;100675.59;;;17.77;88.63
53262;BME280;39658;51.090;-1.786;2022-09-04T08:09:31;100675.38;;;17.79;88.27
53262;BME280;39658;51.090;-1.786;2022-09-04T08:12:29;100670.22;;;17.84;88.22
53262;BME280;39658;51.090;-1.786;2022-09-04T08:15:05;100674.38;;;17.87;88.23
53262;BME280;39658;51.090;-1.786;2022-09-04T08:17:58;100680.41;;;17.95;87.96
53262;BME280;39658;51.090;-1.786;2022-09-04T08:20:39;100676.94;;;18.14;86.85
53262;BME280;39658;51.090;-1.786;2022-09-04T08:26:03;100684.19;;;18.34;85.96
53262;BME280;39658;51.090;-1.786;2022-09-04T08:28:50;100690.66;;;18.46;85.43
53262;BME280;39658;51.090;-1.786;2022-09-04T08:31:28;100690.22;;;18.56;85.07
53262;BME280;39658;51.090;-1.786;2022-09-04T08:34:11;100685.88;;;18.74;83.87
53262;BME280;39658;51.090;-1.786;2022-09-04T08:36:45;100697.91;;;18.72;83.77
53262;BME280;39658;51.090;-1.786;2022-09-04T08:39:21;100701.03;;;18.62;83.99
53262;BME280;39658;51.090;-1.786;2022-09-04T08:45:29;100699.78;;;18.85;83.43
53262;BME280;39658;51.090;-1.786;2022-09-04T08:57:37;100702.97;;;20.04;76.99
53262;BME280;39658;51.090;-1.786;2022-09-04T09:00:13;100715.22;;;20.31;75.86
53262;BME280;39658;51.090;-1.786;2022-09-04T09:10:05;100723.78;;;20.28;75.79
53262;BME280;39658;51.090;-1.786;2022-09-04T09:13:06;100730.50;;;20.19;76.43
53262;BME280;39658;51.090;-1.786;2022-09-04T09:16:10;100740.47;;;19.81;77.33
53262;BME280;39658;51.090;-1.786;2022-09-04T09:18:57;100729.28;;;19.70;77.75
53262;BME280;39658;51.090;-1.786;2022-09-04T09:21:38;100737.41;;;20.09;76.31
53262;BME280;39658;51.090;-1.786;2022-09-04T09:24:52;100726.09;;;19.87;77.01
53262;BME280;39658;51.090;-1.786;2022-09-04T09:28:04;100736.59;;;20.08;76.36
53262;BME280;39658;51.090;-1.786;2022-09-04T09:31:01;100731.56;;;20.50;74.69
53262;BME280;39658;51.090;-1.786;2022-09-04T09:33:54;100735.16;;;20.44;74.68
53262;BME280;39658;51.090;-1.786;2022-09-04T09:36:50;100746.66;;;20.64;74.10
53262;BME280;39658;51.090;-1.786;2022-09-04T09:39:42;100749.09;;;20.41;74.78
53262;BME280;39658;51.090;-1.786;2022-09-04T09:42:47;100758.47;;;20.31;74.83
53262;BME280;39658;51.090;-1.786;2022-09-04T09:48:42;100754.03;;;20.12;75.96
53262;BME280;39658;51.090;-1.786;2022-09-04T09:52:00;100757.56;;;20.13;76.04
53262;BME280;39658;51.090;-1.786;2022-09-04T09:58:05;100764.88;;;20.06;76.54
53262;BME280;39658;51.090;-1.786;2022-09-04T10:00:56;100778.16;;;20.07;76.17
53262;BME280;39658;51.090;-1.786;2022-09-04T10:07:15;100777.56;;;20.37;75.48
53262;BME280;39658;51.090;-1.786;2022-09-04T10:10:13;100772.78;;;20.45;75.10
53262;BME280;39658;51.090;-1.786;2022-09-04T10:13:08;100778.53;;;20.55;74.69
53262;BME280;39658;51.090;-1.786;2022-09-04T10:15:59;100792.25;;;20.85;73.90
53262;BME280;39658;51.090;-1.786;2022-09-04T10:19:08;100791.06;;;20.75;73.79
53262;BME280;39658;51.090;-1.786;2022-09-04T10:25:27;100798.97;;;20.76;73.69
53262;BME280;39658;51.090;-1.786;2022-09-04T10:28:29;100786.59;;;21.12;72.43
53262;BME280;39658;51.090;-1.786;2022-09-04T10:31:31;100784.97;;;21.11;72.58
53262;BME280;39658;51.090;-1.786;2022-09-04T10:34:18;100787.66;;;21.11;72.44
53262;BME280;39658;51.090;-1.786;2022-09-04T10:37:04;100792.34;;;21.47;71.46
53262;BME280;39658;51.090;-1.786;2022-09-04T10:39:45;100786.09;;;21.28;71.76
53262;BME280;39658;51.090;-1.786;2022-09-04T10:42:59;100785.97;;;21.78;70.47
53262;BME280;39658;51.090;-1.786;2022-09-04T10:45:36;100784.88;;;21.97;69.21
53262;BME280;39658;51.090;-1.786;2022-09-04T10:51:04;100789.81;;;21.02;72.81
53262;BME280;39658;51.090;-1.786;2022-09-04T10:53:49;100791.66;;;21.33;71.93
53262;BME280;39658;51.090;-1.786;2022-09-04T10:56:24;100780.84;;;22.66;66.86
53262;BME280;39658;51.090;-1.786;2022-09-04T10:59:11;100779.88;;;23.26;65.32
53262;BME280;39658;51.090;-1.786;2022-09-04T11:02:11;100783.88;;;23.58;63.45
53262;BME280;39658;51.090;-1.786;2022-09-04T11:05:07;100783.28;;;23.21;65.24
53262;BME280;39658;51.090;-1.786;2022-09-04T11:07:58;100779.84;;;23.49;63.64
53262;BME280;39658;51.090;-1.786;2022-09-04T11:10:39;100801.06;;;22.22;67.90
53262;BME280;39658;51.090;-1.786;2022-09-04T11:16:07;100787.38;;;21.99;68.70
53262;BME280;39658;51.090;-1.786;2022-09-04T11:19:12;100786.03;;;22.38;67.89
53262;BME280;39658;51.090;-1.786;2022-09-04T11:22:20;100787.53;;;21.85;69.66
53262;BME280;39658;51.090;-1.786;2022-09-04T11:25:43;100785.19;;;21.89;69.63
53262;BME280;39658;51.090;-1.786;2022-09-04T11:28:45;100789.47;;;21.97;69.36
53262;BME280;39658;51.090;-1.786;2022-09-04T11:31:42;100785.19;;;21.89;70.10
53262;BME280;39658;51.090;-1.786;2022-09-04T11:37:57;100800.91;;;21.25;72.34
53262;BME280;39658;51.090;-1.786;2022-09-04T11:43:48;100799.00;;;21.69;70.33
53262;BME280;39658;51.090;-1.786;2022-09-04T11:46:44;100789.59;;;21.72;70.53
53262;BME280;39658;51.090;-1.786;2022-09-04T11:49:41;100793.69;;;21.56;70.22
53262;BME280;39658;51.090;-1.786;2022-09-04T11:52:24;100791.97;;;21.43;70.75
53262;BME280;39658;51.090;-1.786;2022-09-04T11:57:58;100812.25;;;21.34;70.72
53262;BME280;39658;51.090;-1.786;2022-09-04T12:00:35;100813.44;;;21.13;71.87
53262;BME280;39658;51.090;-1.786;2022-09-04T12:03:35;100815.38;;;20.50;76.86
53262;BME280;39658;51.090;-1.786;2022-09-04T12:06:23;100819.63;;;20.26;78.35
53262;BME280;39658;51.090;-1.786;2022-09-04T12:09:09;100817.53;;;20.28;78.04
53262;BME280;39658;51.090;-1.786;2022-09-04T12:14:48;100812.19;;;21.16;74.97
53262;BME280;39658;51.090;-1.786;2022-09-04T12:20:47;100815.00;;;22.86;68.59
53262;BME280;39658;51.090;-1.786;2022-09-04T12:23:49;100823.00;;;22.20;69.23
53262;BME280;39658;51.090;-1.786;2022-09-04T12:27:01;100831.19;;;21.77;70.50
53262;BME280;39658;51.090;-1.786;2022-09-04T12:29:56;100833.88;;;21.59;71.37
53262;BME280;39658;51.090;-1.786;2022-09-04T12:33:03;100835.75;;;21.40;71.73
53262;BME280;39658;51.090;-1.786;2022-09-04T12:35:58;100843.09;;;21.33;71.08
53262;BME280;39658;51.090;-1.786;2022-09-04T12:41:34;100848.47;;;21.08;72.12
53262;BME280;39658;51.090;-1.786;2022-09-04T12:44:11;100841.50;;;21.19;71.62
53262;BME280;39658;51.090;-1.786;2022-09-04T12:46:53;100837.59;;;21.83;69.44
53262;BME280;39658;51.090;-1.786;2022-09-04T12:49:54;100835.41;;;22.28;68.07
53262;BME280;39658;51.090;-1.786;2022-09-04T12:52:37;100839.41;;;22.26;67.70
53262;BME280;39658;51.090;-1.786;2022-09-04T12:55:12;100851.56;;;22.53;67.03
53262;BME280;39658;51.090;-1.786;2022-09-04T12:57:47;100847.81;;;22.66;66.09
53262;BME280;39658;51.090;-1.786;2022-09-04T13:00:21;100860.94;;;22.69;65.37
53262;BME280;39658;51.090;-1.786;2022-09-04T13:03:07;100845.88;;;23.38;63.43
53262;BME280;39658;51.090;-1.786;2022-09-04T13:05:57;100832.59;;;24.12;61.63
53262;BME280;39658;51.090;-1.786;2022-09-04T13:08:41;100826.84;;;24.65;59.81
53262;BME280;39658;51.090;-1.786;2022-09-04T13:11:25;100832.00;;;24.10;60.54
53262;BME280;39658;51.090;-1.786;2022-09-04T13:14:09;100825.59;;;24.27;60.67
53262;BME280;39658;51.090;-1.786;2022-09-04T13:16:50;100829.84;;;23.71;61.58
53262;BME280;39658;51.090;-1.786;2022-09-04T13:19:25;100831.00;;;23.29;62.84
53262;BME280;39658;51.090;-1.786;2022-09-04T13:22:08;100828.47;;;24.09;60.14
53262;BME280;39658;51.090;-1.786;2022-09-04T13:24:45;100842.25;;;23.67;61.56
53262;BME280;39658;51.090;-1.786;2022-09-04T13:27:25;100834.06;;;23.79;60.93
53262;BME280;39658;51.090;-1.786;2022-09-04T13:30:03;100839.75;;;23.78;61.03
53262;BME280;39658;51.090;-1.786;2022-09-04T13:32:49;100830.91;;;24.22;59.94
53262;BME280;39658;51.090;-1.786;2022-09-04T13:35:27;100822.50;;;25.48;56.23
53262;BME280;39658;51.090;-1.786;2022-09-04T13:38:18;100833.50;;;25.70;54.97
53262;BME280;39658;51.090;-1.786;2022-09-04T13:41:09;100819.06;;;25.19;56.13
53262;BME280;39658;51.090;-1.786;2022-09-04T13:43:56;100823.78;;;25.23;55.84
53262;BME280;39658;51.090;-1.786;2022-09-04T13:46:33;100818.03;;;26.19;53.33
53262;BME280;39658;51.090;-1.786;2022-09-04T13:49:07;100827.81;;;25.38;55.27
53262;BME280;39658;51.090;-1.786;2022-09-04T13:51:39;100825.81;;;25.16;55.28
53262;BME280;39658;51.090;-1.786;2022-09-04T13:54:10;100821.44;;;24.82;56.79
53262;BME280;39658;51.090;-1.786;2022-09-04T13:56:44;100822.13;;;24.32;57.98
53262;BME280;39658;51.090;-1.786;2022-09-04T13:59:16;100843.06;;;23.80;59.16
53262;BME280;39658;51.090;-1.786;2022-09-04T14:01:52;100839.97;;;23.88;59.30
53262;BME280;39658;51.090;-1.786;2022-09-04T14:04:25;100834.56;;;23.76;60.01
53262;BME280;39658;51.090;-1.786;2022-09-04T14:06:55;100841.28;;;23.85;59.83
53262;BME280;39658;51.090;-1.786;2022-09-04T14:09:24;100844.25;;;23.72;60.09
53262;BME280;39658;51.090;-1.786;2022-09-04T14:12:10;100850.59;;;23.31;61.58
53262;BME280;39658;51.090;-1.786;2022-09-04T14:15:05;100845.47;;;23.11;62.01
53262;BME280;39658;51.090;-1.786;2022-09-04T14:17:39;100835.47;;;23.11;62.17
53262;BME280;39658;51.090;-1.786;2022-09-04T14:20:13;100836.88;;;23.14;61.82
53262;BME280;39658;51.090;-1.786;2022-09-04T14:22:50;100840.97;;;22.93;63.10
53262;BME280;39658;51.090;-1.786;2022-09-04T14:25:25;100843.13;;;23.03;62.73
53262;BME280;39658;51.090;-1.786;2022-09-04T14:27:59;100827.53;;;22.98;62.69
53262;BME280;39658;51.090;-1.786;2022-09-04T14:30:30;100837.03;;;23.31;61.12
53262;BME280;39658;51.090;-1.786;2022-09-04T14:33:15;100834.28;;;23.07;62.36
53262;BME280;39658;51.090;-1.786;2022-09-04T14:35:54;100833.41;;;22.84;62.65
53262;BME280;39658;51.090;-1.786;2022-09-04T14:38:54;100840.03;;;22.58;63.88
53262;BME280;39658;51.090;-1.786;2022-09-04T14:41:34;100831.59;;;22.17;65.13
53262;BME280;39658;51.090;-1.786;2022-09-04T14:44:19;100840.13;;;22.33;64.31
53262;BME280;39658;51.090;-1.786;2022-09-04T14:46:56;100824.41;;;22.23;64.53
53262;BME280;39658;51.090;-1.786;2022-09-04T14:49:27;100840.31;;;22.19;64.76
53262;BME280;39658;51.090;-1.786;2022-09-04T14:52:01;100831.97;;;22.21;64.90
53262;BME280;39658;51.090;-1.786;2022-09-04T14:54:37;100841.75;;;22.22;64.48
53262;BME280;39658;51.090;-1.786;2022-09-04T14:57:14;100849.69;;;22.05;65.13
53262;BME280;39658;51.090;-1.786;2022-09-04T14:59:46;100836.97;;;22.06;65.45
53262;BME280;39658;51.090;-1.786;2022-09-04T15:02:22;100833.56;;;22.10;64.95
53262;BME280;39658;51.090;-1.786;2022-09-04T15:04:58;100840.25;;;22.08;65.13
53262;BME280;39658;51.090;-1.786;2022-09-04T15:07:52;100839.47;;;21.82;65.57
53262;BME280;39658;51.090;-1.786;2022-09-04T15:10:24;100829.16;;;21.73;66.08
53262;BME280;39658;51.090;-1.786;2022-09-04T15:12:54;100823.75;;;21.73;66.43